sensor_id;sensor_type;location;lat;lon;timestamp;temperature;humidity
19168;DHT22;9716;53.114;18.040;2023-01-10T00:00:31;5.00;99.90
19168;DHT22;9716;53.114;18.040;2023-01-10T00:03:21;5.00;99.90
19168;DHT22;9716;53.114;18.040;2023-01-10T00:05:50;5.00;99.90
19168;DHT22;9716;53.114;18.040;2023-01-10T00:08:18;5.00;99.90
19168;DHT22;9716;53.114;18.040;2023-01-10T00:10:48;5.00;99.90
19168;DHT22;9716;53.114;18.040;2023-01-10T00:13:17;5.00;99.90
19168;DHT22;9716;53.114;18.040;2023-01-10T00:15:52;5.00;99.90
19168;DHT22;9716;53.114;18.040;2023-01-10T00:18:21;5.00;99.90
19168;DHT22;9716;53.114;18.040;2023-01-10T00:20:50;5.00;99.90
19168;DHT22;9716;53.114;18.040;2023-01-10T00:23:19;5.00;99.90
19168;DHT22;9716;53.114;18.040;2023-01-10T00:25:52;4.90;99.90
19168;DHT22;9716;53.114;18.040;2023-01-10T00:28:20;5.00;99.90
19168;DHT22;9716;53.114;18.040;2023-01-10T00:30:51;5.00;99.90
19168;DHT22;9716;53.114;18.040;2023-01-10T00:33:27;5.00;99.90
19168;DHT22;9716;53.114;18.040;2023-01-10T00:35:58;5.10;99.90
19168;DHT22;9716;53.114;18.040;2023-01-10T00:38:27;5.10;99.90
19168;DHT22;9716;53.114;18.040;2023-01-10T00:40:58;5.20;99.90
19168;DHT22;9716;53.114;18.040;2023-01-10T00:43:27;5.20;99.90
19168;DHT22;9716;53.114;18.040;2023-01-10T00:46:12;5.30;99.90
19168;DHT22;9716;53.114;18.040;2023-01-10T00:48:41;5.30;99.90
19168;DHT22;9716;53.114;18.040;2023-01-10T00:51:10;5.30;99.90
19168;DHT22;9716;53.114;18.040;2023-01-10T00:53:38;5.40;99.90
19168;DHT22;9716;53.114;18.040;2023-01-10T00:56:08;5.40;99.90
19168;DHT22;9716;53.114;18.040;2023-01-10T00:58:37;5.40;99.90
19168;DHT22;9716;53.114;18.040;2023-01-10T01:01:05;5.40;99.90
19168;DHT22;9716;53.114;18.040;2023-01-10T01:03:34;5.50;99.90
19168;DHT22;9716;53.114;18.040;2023-01-10T01:06:03;5.40;99.90
19168;DHT22;9716;53.114;18.040;2023-01-10T01:08:33;5.50;99.90
19168;DHT22;9716;53.114;18.040;2023-01-10T01:11:01;5.50;99.90
19168;DHT22;9716;53.114;18.040;2023-01-10T01:13:31;5.50;99.90
19168;DHT22;9716;53.114;18.040;2023-01-10T01:16:00;5.50;99.90
19168;DHT22;9716;53.114;18.040;2023-01-10T01:18:29;5.50;99.90
19168;DHT22;9716;53.114;18.040;2023-01-10T01:20:58;5.50;99.90
19168;DHT22;9716;53.114;18.040;2023-01-10T01:23:31;5.50;99.90
19168;DHT22;9716;53.114;18.040;2023-01-10T01:26:01;5.50;99.90
19168;DHT22;9716;53.114;18.040;2023-01-10T01:28:31;5.60;99.90
19168;DHT22;9716;53.114;18.040;2023-01-10T01:31:06;5.60;99.90
19168;DHT22;9716;53.114;18.040;2023-01-10T01:33:36;5.60;99.90
19168;DHT22;9716;53.114;18.040;2023-01-10T01:36:08;5.60;99.90
19168;DHT22;9716;53.114;18.040;2023-01-10T01:38:37;5.60;99.90
19168;DHT22;9716;53.114;18.040;2023-01-10T01:41:05;5.60;99.90
19168;DHT22;9716;53.114;18.040;2023-01-10T01:44:01;5.60;99.90
19168;DHT22;9716;53.114;18.040;2023-01-10T01:46:32;5.60;99.90
19168;DHT22;9716;53.114;18.040;2023-01-10T01:49:02;5.60;99.90
19168;DHT22;9716;53.114;18.040;2023-01-10T01:51:33;5.60;99.90
19168;DHT22;9716;53.114;18.040;2023-01-10T01:54:05;5.60;99.90
19168;DHT22;9716;53.114;18.040;2023-01-10T01:56:37;5.60;99.90
19168;DHT22;9716;53.114;18.040;2023-01-10T01:59:16;5.60;99.90
19168;DHT22;9716;53.114;18.040;2023-01-10T02:01:48;5.50;99.90
19168;DHT22;9716;53.114;18.040;2023-01-10T02:04:21;5.50;99.90
19168;DHT22;9716;53.114;18.040;2023-01-10T02:06:52;5.50;99.90
19168;DHT22;9716;53.114;18.040;2023-01-10T02:09:26;5.50;99.90
19168;DHT22;9716;53.114;18.040;2023-01-10T02:11:56;5.50;99.90
19168;DHT22;9716;53.114;18.040;2023-01-10T02:14:26;5.50;99.90
19168;DHT22;9716;53.114;18.040;2023-01-10T02:16:55;5.50;99.90
19168;DHT22;9716;53.114;18.040;2023-01-10T02:19:28;5.50;99.90
19168;DHT22;9716;53.114;18.040;2023-01-10T02:25:33;5.50;99.90
19168;DHT22;9716;53.114;18.040;2023-01-10T02:28:38;5.50;99.90
19168;DHT22;9716;53.114;18.040;2023-01-10T02:34:19;5.50;99.90
19168;DHT22;9716;53.114;18.040;2023-01-10T02:36:58;5.50;99.90
19168;DHT22;9716;53.114;18.040;2023-01-10T02:39:32;5.50;99.90
19168;DHT22;9716;53.114;18.040;2023-01-10T02:42:06;5.50;99.90
19168;DHT22;9716;53.114;18.040;2023-01-10T02:44:41;5.50;99.90
19168;DHT22;9716;53.114;18.040;2023-01-10T02:47:13;5.50;99.90
19168;DHT22;9716;53.114;18.040;2023-01-10T02:49:44;5.50;99.90
19168;DHT22;9716;53.114;18.040;2023-01-10T02:52:15;5.40;99.90
19168;DHT22;9716;53.114;18.040;2023-01-10T02:54:45;5.40;99.90
19168;DHT22;9716;53.114;18.040;2023-01-10T02:57:30;5.40;99.90
19168;DHT22;9716;53.114;18.040;2023-01-10T03:00:36;5.40;99.90
19168;DHT22;9716;53.114;18.040;2023-01-10T03:03:22;5.40;99.90
19168;DHT22;9716;53.114;18.040;2023-01-10T03:06:10;5.40;99.90
19168;DHT22;9716;53.114;18.040;2023-01-10T03:08:49;5.40;99.90
19168;DHT22;9716;53.114;18.040;2023-01-10T03:11:22;5.40;99.90
19168;DHT22;9716;53.114;18.040;2023-01-10T03:14:11;5.40;99.90
19168;DHT22;9716;53.114;18.040;2023-01-10T03:16:46;5.40;99.90
19168;DHT22;9716;53.114;18.040;2023-01-10T03:19:19;5.40;99.90
19168;DHT22;9716;53.114;18.040;2023-01-10T03:21:53;5.40;99.90
19168;DHT22;9716;53.114;18.040;2023-01-10T03:24:27;5.40;99.90
19168;DHT22;9716;53.114;18.040;2023-01-10T03:27:06;5.40;99.90
19168;DHT22;9716;53.114;18.040;2023-01-10T03:29:40;5.40;99.90
19168;DHT22;9716;53.114;18.040;2023-01-10T03:32:11;5.40;99.90
19168;DHT22;9716;53.114;18.040;2023-01-10T03:34:43;5.30;99.90
19168;DHT22;9716;53.114;18.040;2023-01-10T03:37:16;5.30;99.90
19168;DHT22;9716;53.114;18.040;2023-01-10T03:39:54;5.30;99.90
19168;DHT22;9716;53.114;18.040;2023-01-10T03:42:30;5.30;99.90
19168;DHT22;9716;53.114;18.040;2023-01-10T03:45:27;5.30;99.90
19168;DHT22;9716;53.114;18.040;2023-01-10T03:47:57;5.30;99.90
19168;DHT22;9716;53.114;18.040;2023-01-10T03:50:29;5.30;99.90
19168;DHT22;9716;53.114;18.040;2023-01-10T03:52:59;5.20;99.90
19168;DHT22;9716;53.114;18.040;2023-01-10T03:55:28;5.20;99.90
19168;DHT22;9716;53.114;18.040;2023-01-10T03:57:58;5.20;99.90
19168;DHT22;9716;53.114;18.040;2023-01-10T04:00:26;5.20;99.90
19168;DHT22;9716;53.114;18.040;2023-01-10T04:02:56;5.20;99.90
19168;DHT22;9716;53.114;18.040;2023-01-10T04:05:25;5.20;99.90
19168;DHT22;9716;53.114;18.040;2023-01-10T04:07:53;5.20;99.90
19168;DHT22;9716;53.114;18.040;2023-01-10T04:10:23;5.20;99.90
19168;DHT22;9716;53.114;18.040;2023-01-10T04:12:53;5.10;99.90
19168;DHT22;9716;53.114;18.040;2023-01-10T04:15:21;5.10;99.90
19168;DHT22;9716;53.114;18.040;2023-01-10T04:17:50;5.10;99.90
19168;DHT22;9716;53.114;18.040;2023-01-10T04:20:18;5.10;99.90
19168;DHT22;9716;53.114;18.040;2023-01-10T04:22:50;5.10;99.90
19168;DHT22;9716;53.114;18.040;2023-01-10T04:25:21;5.10;99.90
19168;DHT22;9716;53.114;18.040;2023-01-10T04:27:51;5.10;99.90
19168;DHT22;9716;53.114;18.040;2023-01-10T04:30:20;5.10;99.90
19168;DHT22;9716;53.114;18.040;2023-01-10T04:32:49;5.10;99.90
19168;DHT22;9716;53.114;18.040;2023-01-10T04:35:17;5.10;99.90
19168;DHT22;9716;53.114;18.040;2023-01-10T04:37:46;5.00;99.90
19168;DHT22;9716;53.114;18.040;2023-01-10T04:40:15;5.00;99.90
19168;DHT22;9716;53.114;18.040;2023-01-10T04:42:46;5.00;99.90
19168;DHT22;9716;53.114;18.040;2023-01-10T04:45:15;5.00;99.90
19168;DHT22;9716;53.114;18.040;2023-01-10T04:47:49;4.90;99.90
19168;DHT22;9716;53.114;18.040;2023-01-10T04:50:17;4.90;99.90
19168;DHT22;9716;53.114;18.040;2023-01-10T04:52:46;4.90;99.90
19168;DHT22;9716;53.114;18.040;2023-01-10T04:55:15;4.90;99.90
19168;DHT22;9716;53.114;18.040;2023-01-10T04:57:44;4.90;99.90
19168;DHT22;9716;53.114;18.040;2023-01-10T05:00:16;4.80;99.90
19168;DHT22;9716;53.114;18.040;2023-01-10T05:02:45;4.80;99.90
19168;DHT22;9716;53.114;18.040;2023-01-10T05:05:13;4.90;99.90
19168;DHT22;9716;53.114;18.040;2023-01-10T05:07:44;4.80;99.90
19168;DHT22;9716;53.114;18.040;2023-01-10T05:10:14;4.80;99.90
19168;DHT22;9716;53.114;18.040;2023-01-10T05:12:43;4.80;99.90
19168;DHT22;9716;53.114;18.040;2023-01-10T05:15:12;4.80;99.90
19168;DHT22;9716;53.114;18.040;2023-01-10T05:17:42;4.80;99.90
19168;DHT22;9716;53.114;18.040;2023-01-10T05:20:11;4.80;99.90
19168;DHT22;9716;53.114;18.040;2023-01-10T05:22:41;4.80;99.90
19168;DHT22;9716;53.114;18.040;2023-01-10T05:25:10;4.70;99.90
19168;DHT22;9716;53.114;18.040;2023-01-10T05:27:40;4.70;99.90
19168;DHT22;9716;53.114;18.040;2023-01-10T05:30:11;4.70;99.90
19168;DHT22;9716;53.114;18.040;2023-01-10T05:32:42;4.70;99.90
19168;DHT22;9716;53.114;18.040;2023-01-10T05:35:11;4.60;99.90
19168;DHT22;9716;53.114;18.040;2023-01-10T05:37:39;4.60;99.90
19168;DHT22;9716;53.114;18.040;2023-01-10T05:40:09;4.60;99.90
19168;DHT22;9716;53.114;18.040;2023-01-10T05:42:38;4.60;99.90
19168;DHT22;9716;53.114;18.040;2023-01-10T05:45:07;4.60;99.90
19168;DHT22;9716;53.114;18.040;2023-01-10T05:47:37;4.60;99.90
19168;DHT22;9716;53.114;18.040;2023-01-10T05:50:08;4.60;99.90
19168;DHT22;9716;53.114;18.040;2023-01-10T05:52:37;4.60;99.90
19168;DHT22;9716;53.114;18.040;2023-01-10T05:55:06;4.60;99.90
19168;DHT22;9716;53.114;18.040;2023-01-10T05:57:35;4.50;99.90
19168;DHT22;9716;53.114;18.040;2023-01-10T06:00:06;4.60;99.90
19168;DHT22;9716;53.114;18.040;2023-01-10T06:02:36;4.60;99.90
19168;DHT22;9716;53.114;18.040;2023-01-10T06:05:07;4.60;99.90
19168;DHT22;9716;53.114;18.040;2023-01-10T06:07:36;4.60;99.90
19168;DHT22;9716;53.114;18.040;2023-01-10T06:10:05;4.60;99.90
19168;DHT22;9716;53.114;18.040;2023-01-10T06:12:34;4.60;99.90
19168;DHT22;9716;53.114;18.040;2023-01-10T06:15:03;4.60;99.90
19168;DHT22;9716;53.114;18.040;2023-01-10T06:17:32;4.60;99.90
19168;DHT22;9716;53.114;18.040;2023-01-10T06:20:00;4.50;99.90
19168;DHT22;9716;53.114;18.040;2023-01-10T06:22:30;4.50;99.90
19168;DHT22;9716;53.114;18.040;2023-01-10T06:24:59;4.60;99.90
19168;DHT22;9716;53.114;18.040;2023-01-10T06:27:28;4.60;99.90
19168;DHT22;9716;53.114;18.040;2023-01-10T06:29:57;4.60;99.90
19168;DHT22;9716;53.114;18.040;2023-01-10T06:32:30;4.60;99.90
19168;DHT22;9716;53.114;18.040;2023-01-10T06:34:59;4.60;99.90
19168;DHT22;9716;53.114;18.040;2023-01-10T06:37:28;4.60;99.90
19168;DHT22;9716;53.114;18.040;2023-01-10T06:39:57;4.60;99.90
19168;DHT22;9716;53.114;18.040;2023-01-10T06:42:26;4.60;99.90
19168;DHT22;9716;53.114;18.040;2023-01-10T06:44:55;4.60;99.90
19168;DHT22;9716;53.114;18.040;2023-01-10T06:47:24;4.70;99.90
19168;DHT22;9716;53.114;18.040;2023-01-10T06:49:52;4.70;99.90
19168;DHT22;9716;53.114;18.040;2023-01-10T06:52:21;4.70;99.90
19168;DHT22;9716;53.114;18.040;2023-01-10T06:54:49;4.70;99.90
19168;DHT22;9716;53.114;18.040;2023-01-10T06:57:21;4.70;99.90
19168;DHT22;9716;53.114;18.040;2023-01-10T06:59:49;4.70;99.90
19168;DHT22;9716;53.114;18.040;2023-01-10T07:02:18;4.80;99.90
19168;DHT22;9716;53.114;18.040;2023-01-10T07:04:47;4.80;99.90
19168;DHT22;9716;53.114;18.040;2023-01-10T07:07:16;4.80;99.90
19168;DHT22;9716;53.114;18.040;2023-01-10T07:09:45;4.70;99.90
19168;DHT22;9716;53.114;18.040;2023-01-10T07:12:14;4.80;99.90
19168;DHT22;9716;53.114;18.040;2023-01-10T07:14:43;4.80;99.90
19168;DHT22;9716;53.114;18.040;2023-01-10T07:17:12;4.80;99.90
19168;DHT22;9716;53.114;18.040;2023-01-10T07:19:41;4.80;99.90
19168;DHT22;9716;53.114;18.040;2023-01-10T07:22:10;4.80;99.90
19168;DHT22;9716;53.114;18.040;2023-01-10T07:24:39;4.80;99.90
19168;DHT22;9716;53.114;18.040;2023-01-10T07:27:09;4.80;99.90
19168;DHT22;9716;53.114;18.040;2023-01-10T07:29:37;4.90;99.90
19168;DHT22;9716;53.114;18.040;2023-01-10T07:32:07;4.90;99.90
19168;DHT22;9716;53.114;18.040;2023-01-10T07:34:36;4.90;99.90
19168;DHT22;9716;53.114;18.040;2023-01-10T07:37:05;4.90;99.90
19168;DHT22;9716;53.114;18.040;2023-01-10T07:39:34;4.80;99.90
19168;DHT22;9716;53.114;18.040;2023-01-10T07:42:03;4.90;99.90
19168;DHT22;9716;53.114;18.040;2023-01-10T07:44:31;4.90;99.90
19168;DHT22;9716;53.114;18.040;2023-01-10T07:47:00;5.00;99.90
19168;DHT22;9716;53.114;18.040;2023-01-10T07:49:30;5.00;99.90
19168;DHT22;9716;53.114;18.040;2023-01-10T07:51:59;5.00;99.90
19168;DHT22;9716;53.114;18.040;2023-01-10T07:54:27;5.00;99.90
19168;DHT22;9716;53.114;18.040;2023-01-10T07:56:56;5.00;99.90
19168;DHT22;9716;53.114;18.040;2023-01-10T07:59:25;5.10;99.90
19168;DHT22;9716;53.114;18.040;2023-01-10T08:01:54;5.10;99.90
19168;DHT22;9716;53.114;18.040;2023-01-10T08:04:23;5.20;99.90
19168;DHT22;9716;53.114;18.040;2023-01-10T08:06:54;5.20;99.90
19168;DHT22;9716;53.114;18.040;2023-01-10T08:09:23;5.20;99.90
19168;DHT22;9716;53.114;18.040;2023-01-10T08:11:52;5.30;99.90
19168;DHT22;9716;53.114;18.040;2023-01-10T08:14:21;5.30;99.90
19168;DHT22;9716;53.114;18.040;2023-01-10T08:16:51;5.30;99.90
19168;DHT22;9716;53.114;18.040;2023-01-10T08:19:19;5.40;99.90
19168;DHT22;9716;53.114;18.040;2023-01-10T08:21:48;5.40;99.90
19168;DHT22;9716;53.114;18.040;2023-01-10T08:24:18;5.50;99.90
19168;DHT22;9716;53.114;18.040;2023-01-10T08:26:47;5.50;99.90
19168;DHT22;9716;53.114;18.040;2023-01-10T08:29:15;5.50;99.90
19168;DHT22;9716;53.114;18.040;2023-01-10T08:31:44;5.60;99.90
19168;DHT22;9716;53.114;18.040;2023-01-10T08:34:14;5.60;99.90
19168;DHT22;9716;53.114;18.040;2023-01-10T08:36:43;5.70;99.90
19168;DHT22;9716;53.114;18.040;2023-01-10T08:39:12;5.70;99.90
19168;DHT22;9716;53.114;18.040;2023-01-10T08:41:43;5.80;99.90
19168;DHT22;9716;53.114;18.040;2023-01-10T08:44:11;5.80;99.90
19168;DHT22;9716;53.114;18.040;2023-01-10T08:46:42;5.90;99.90
19168;DHT22;9716;53.114;18.040;2023-01-10T08:49:10;6.00;99.90
19168;DHT22;9716;53.114;18.040;2023-01-10T08:51:41;6.00;99.90
19168;DHT22;9716;53.114;18.040;2023-01-10T08:54:11;6.10;99.90
19168;DHT22;9716;53.114;18.040;2023-01-10T08:56:40;6.10;99.90
19168;DHT22;9716;53.114;18.040;2023-01-10T08:59:10;6.20;99.90
19168;DHT22;9716;53.114;18.040;2023-01-10T09:01:39;6.20;99.90
19168;DHT22;9716;53.114;18.040;2023-01-10T09:04:08;6.20;99.90
19168;DHT22;9716;53.114;18.040;2023-01-10T09:06:36;6.30;99.90
19168;DHT22;9716;53.114;18.040;2023-01-10T09:09:05;6.40;99.90
19168;DHT22;9716;53.114;18.040;2023-01-10T09:11:34;6.40;99.90
19168;DHT22;9716;53.114;18.040;2023-01-10T09:14:03;6.40;99.90
19168;DHT22;9716;53.114;18.040;2023-01-10T09:16:35;6.50;99.90
19168;DHT22;9716;53.114;18.040;2023-01-10T09:19:03;6.50;99.90
19168;DHT22;9716;53.114;18.040;2023-01-10T09:21:32;6.60;99.90
19168;DHT22;9716;53.114;18.040;2023-01-10T09:24:00;6.70;99.90
19168;DHT22;9716;53.114;18.040;2023-01-10T09:26:29;6.80;99.90
19168;DHT22;9716;53.114;18.040;2023-01-10T09:28:58;6.80;99.90
19168;DHT22;9716;53.114;18.040;2023-01-10T09:31:27;6.90;99.90
19168;DHT22;9716;53.114;18.040;2023-01-10T09:33:57;7.00;99.90
19168;DHT22;9716;53.114;18.040;2023-01-10T09:36:26;7.10;99.90
19168;DHT22;9716;53.114;18.040;2023-01-10T09:38:54;7.10;99.90
19168;DHT22;9716;53.114;18.040;2023-01-10T09:41:42;7.20;99.90
19168;DHT22;9716;53.114;18.040;2023-01-10T09:44:19;7.30;99.90
19168;DHT22;9716;53.114;18.040;2023-01-10T09:46:54;7.40;99.90
19168;DHT22;9716;53.114;18.040;2023-01-10T09:49:41;7.40;99.90
19168;DHT22;9716;53.114;18.040;2023-01-10T09:52:19;7.50;99.90
19168;DHT22;9716;53.114;18.040;2023-01-10T09:54:51;7.50;99.90
19168;DHT22;9716;53.114;18.040;2023-01-10T09:57:21;7.60;99.90
19168;DHT22;9716;53.114;18.040;2023-01-10T09:59:51;7.60;99.90
19168;DHT22;9716;53.114;18.040;2023-01-10T10:02:28;7.60;99.90
19168;DHT22;9716;53.114;18.040;2023-01-10T10:05:07;7.60;99.90
19168;DHT22;9716;53.114;18.040;2023-01-10T10:07:37;7.70;99.90
19168;DHT22;9716;53.114;18.040;2023-01-10T10:10:11;7.70;99.90
19168;DHT22;9716;53.114;18.040;2023-01-10T10:12:48;7.80;99.90
19168;DHT22;9716;53.114;18.040;2023-01-10T10:15:25;7.80;99.90
19168;DHT22;9716;53.114;18.040;2023-01-10T10:18:08;7.80;99.90
19168;DHT22;9716;53.114;18.040;2023-01-10T10:20:47;7.80;99.90
19168;DHT22;9716;53.114;18.040;2023-01-10T10:23:28;7.80;99.90
19168;DHT22;9716;53.114;18.040;2023-01-10T10:26:04;7.90;99.90
19168;DHT22;9716;53.114;18.040;2023-01-10T10:29:00;7.90;99.90
19168;DHT22;9716;53.114;18.040;2023-01-10T10:31:43;7.90;99.90
19168;DHT22;9716;53.114;18.040;2023-01-10T10:34:23;7.90;99.90
19168;DHT22;9716;53.114;18.040;2023-01-10T10:36:56;8.00;99.90
19168;DHT22;9716;53.114;18.040;2023-01-10T10:39:35;8.00;99.90
19168;DHT22;9716;53.114;18.040;2023-01-10T10:42:09;8.00;99.90
19168;DHT22;9716;53.114;18.040;2023-01-10T10:44:44;8.10;99.90
19168;DHT22;9716;53.114;18.040;2023-01-10T10:47:15;8.10;99.90
19168;DHT22;9716;53.114;18.040;2023-01-10T10:49:49;8.10;99.90
19168;DHT22;9716;53.114;18.040;2023-01-10T10:52:24;8.20;99.90
19168;DHT22;9716;53.114;18.040;2023-01-10T10:54:53;8.20;99.90
19168;DHT22;9716;53.114;18.040;2023-01-10T10:57:25;8.20;99.90
19168;DHT22;9716;53.114;18.040;2023-01-10T10:59:56;8.20;99.90
19168;DHT22;9716;53.114;18.040;2023-01-10T11:02:27;8.20;99.90
19168;DHT22;9716;53.114;18.040;2023-01-10T11:04:59;8.20;99.90
19168;DHT22;9716;53.114;18.040;2023-01-10T11:07:32;8.20;99.90
19168;DHT22;9716;53.114;18.040;2023-01-10T11:10:03;8.20;99.90
19168;DHT22;9716;53.114;18.040;2023-01-10T11:12:44;8.20;99.90
19168;DHT22;9716;53.114;18.040;2023-01-10T11:15:40;8.20;99.90
19168;DHT22;9716;53.114;18.040;2023-01-10T11:18:12;8.20;99.90
19168;DHT22;9716;53.114;18.040;2023-01-10T11:20:49;8.20;99.90
19168;DHT22;9716;53.114;18.040;2023-01-10T11:23:33;8.30;99.90
19168;DHT22;9716;53.114;18.040;2023-01-10T11:26:04;8.30;99.90
19168;DHT22;9716;53.114;18.040;2023-01-10T11:28:34;8.30;99.90
19168;DHT22;9716;53.114;18.040;2023-01-10T11:31:04;8.30;99.90
19168;DHT22;9716;53.114;18.040;2023-01-10T11:33:33;8.30;99.90
19168;DHT22;9716;53.114;18.040;2023-01-10T11:36:04;8.30;99.90
19168;DHT22;9716;53.114;18.040;2023-01-10T11:38:35;8.30;99.90
19168;DHT22;9716;53.114;18.040;2023-01-10T11:41:05;8.30;99.90
19168;DHT22;9716;53.114;18.040;2023-01-10T11:43:36;8.30;99.90
19168;DHT22;9716;53.114;18.040;2023-01-10T11:46:13;8.30;99.90
19168;DHT22;9716;53.114;18.040;2023-01-10T11:48:45;8.30;99.90
19168;DHT22;9716;53.114;18.040;2023-01-10T11:51:37;8.30;99.90
19168;DHT22;9716;53.114;18.040;2023-01-10T11:54:12;8.30;99.90
19168;DHT22;9716;53.114;18.040;2023-01-10T11:56:53;8.30;99.90
19168;DHT22;9716;53.114;18.040;2023-01-10T11:59:23;8.40;99.90
19168;DHT22;9716;53.114;18.040;2023-01-10T12:01:57;8.40;99.90
19168;DHT22;9716;53.114;18.040;2023-01-10T12:04:28;8.40;99.90
19168;DHT22;9716;53.114;18.040;2023-01-10T12:07:01;8.30;99.90
19168;DHT22;9716;53.114;18.040;2023-01-10T12:09:37;8.20;99.90
19168;DHT22;9716;53.114;18.040;2023-01-10T12:12:18;8.10;99.90
19168;DHT22;9716;53.114;18.040;2023-01-10T12:14:48;8.10;99.90
19168;DHT22;9716;53.114;18.040;2023-01-10T12:17:23;8.00;99.90
19168;DHT22;9716;53.114;18.040;2023-01-10T12:19:53;8.00;99.90
19168;DHT22;9716;53.114;18.040;2023-01-10T12:22:29;8.00;99.90
19168;DHT22;9716;53.114;18.040;2023-01-10T12:25:01;8.00;99.90
19168;DHT22;9716;53.114;18.040;2023-01-10T12:27:31;7.90;99.90
19168;DHT22;9716;53.114;18.040;2023-01-10T12:30:04;7.90;99.90
19168;DHT22;9716;53.114;18.040;2023-01-10T12:32:38;7.80;99.90
19168;DHT22;9716;53.114;18.040;2023-01-10T12:35:14;7.80;99.90
19168;DHT22;9716;53.114;18.040;2023-01-10T12:37:47;7.80;99.90
19168;DHT22;9716;53.114;18.040;2023-01-10T12:40:24;7.80;99.90
19168;DHT22;9716;53.114;18.040;2023-01-10T12:43:02;7.80;99.90
19168;DHT22;9716;53.114;18.040;2023-01-10T12:45:52;7.80;99.90
19168;DHT22;9716;53.114;18.040;2023-01-10T12:48:29;7.80;99.90
19168;DHT22;9716;53.114;18.040;2023-01-10T12:51:04;7.80;99.90
19168;DHT22;9716;53.114;18.040;2023-01-10T12:53:37;7.80;99.90
19168;DHT22;9716;53.114;18.040;2023-01-10T12:56:11;7.80;99.90
19168;DHT22;9716;53.114;18.040;2023-01-10T12:58:42;7.80;99.90
19168;DHT22;9716;53.114;18.040;2023-01-10T13:01:15;7.80;99.90
19168;DHT22;9716;53.114;18.040;2023-01-10T13:03:45;7.70;99.90
19168;DHT22;9716;53.114;18.040;2023-01-10T13:06:22;7.70;99.90
19168;DHT22;9716;53.114;18.040;2023-01-10T13:08:52;7.60;99.90
19168;DHT22;9716;53.114;18.040;2023-01-10T13:11:27;7.60;99.90
19168;DHT22;9716;53.114;18.040;2023-01-10T13:14:00;7.60;99.90
19168;DHT22;9716;53.114;18.040;2023-01-10T13:16:35;7.50;99.90
19168;DHT22;9716;53.114;18.040;2023-01-10T13:19:23;7.50;99.90
19168;DHT22;9716;53.114;18.040;2023-01-10T13:22:19;7.50;99.90
19168;DHT22;9716;53.114;18.040;2023-01-10T13:24:56;7.50;99.90
19168;DHT22;9716;53.114;18.040;2023-01-10T13:27:29;7.50;99.90
19168;DHT22;9716;53.114;18.040;2023-01-10T13:29:59;7.50;99.90
19168;DHT22;9716;53.114;18.040;2023-01-10T13:32:31;7.50;99.90
19168;DHT22;9716;53.114;18.040;2023-01-10T13:35:11;7.50;99.90
19168;DHT22;9716;53.114;18.040;2023-01-10T13:37:42;7.50;99.90
19168;DHT22;9716;53.114;18.040;2023-01-10T13:40:19;7.50;99.90
19168;DHT22;9716;53.114;18.040;2023-01-10T13:46:38;7.60;99.90
19168;DHT22;9716;53.114;18.040;2023-01-10T13:49:42;7.60;99.90
19168;DHT22;9716;53.114;18.040;2023-01-10T13:52:35;7.60;99.90
19168;DHT22;9716;53.114;18.040;2023-01-10T13:55:27;7.60;99.90
19168;DHT22;9716;53.114;18.040;2023-01-10T13:57:57;7.70;99.90
19168;DHT22;9716;53.114;18.040;2023-01-10T14:00:54;7.70;99.90
19168;DHT22;9716;53.114;18.040;2023-01-10T14:03:48;7.60;99.90
19168;DHT22;9716;53.114;18.040;2023-01-10T14:06:33;7.60;99.90
19168;DHT22;9716;53.114;18.040;2023-01-10T14:09:31;7.60;99.90
19168;DHT22;9716;53.114;18.040;2023-01-10T14:12:01;7.60;99.90
19168;DHT22;9716;53.114;18.040;2023-01-10T14:14:33;7.60;99.90
19168;DHT22;9716;53.114;18.040;2023-01-10T14:17:14;7.60;99.90
19168;DHT22;9716;53.114;18.040;2023-01-10T14:20:15;7.60;99.90
19168;DHT22;9716;53.114;18.040;2023-01-10T14:23:03;7.60;99.90
19168;DHT22;9716;53.114;18.040;2023-01-10T14:25:35;7.60;99.90
19168;DHT22;9716;53.114;18.040;2023-01-10T14:28:04;7.50;99.90
19168;DHT22;9716;53.114;18.040;2023-01-10T14:30:44;7.50;99.90
19168;DHT22;9716;53.114;18.040;2023-01-10T14:33:20;7.50;99.90
19168;DHT22;9716;53.114;18.040;2023-01-10T14:35:55;7.40;99.90
19168;DHT22;9716;53.114;18.040;2023-01-10T14:38:27;7.40;99.90
19168;DHT22;9716;53.114;18.040;2023-01-10T14:41:00;7.40;99.90
19168;DHT22;9716;53.114;18.040;2023-01-10T14:43:38;7.40;99.90
19168;DHT22;9716;53.114;18.040;2023-01-10T14:46:11;7.40;99.90
19168;DHT22;9716;53.114;18.040;2023-01-10T14:48:46;7.40;99.90
19168;DHT22;9716;53.114;18.040;2023-01-10T14:51:22;7.30;99.90
19168;DHT22;9716;53.114;18.040;2023-01-10T14:53:56;7.30;99.90
19168;DHT22;9716;53.114;18.040;2023-01-10T14:56:34;7.30;99.90
19168;DHT22;9716;53.114;18.040;2023-01-10T14:59:16;7.30;99.90
19168;DHT22;9716;53.114;18.040;2023-01-10T15:01:46;7.30;99.90
19168;DHT22;9716;53.114;18.040;2023-01-10T15:04:17;7.30;99.90
19168;DHT22;9716;53.114;18.040;2023-01-10T15:06:58;7.30;99.90
19168;DHT22;9716;53.114;18.040;2023-01-10T15:09:30;7.20;99.90
19168;DHT22;9716;53.114;18.040;2023-01-10T15:12:02;7.20;99.90
19168;DHT22;9716;53.114;18.040;2023-01-10T15:14:32;7.20;99.90
19168;DHT22;9716;53.114;18.040;2023-01-10T15:17:03;7.20;99.90
19168;DHT22;9716;53.114;18.040;2023-01-10T15:19:33;7.10;99.90
19168;DHT22;9716;53.114;18.040;2023-01-10T15:22:15;7.10;99.90
19168;DHT22;9716;53.114;18.040;2023-01-10T15:24:56;7.10;99.90
19168;DHT22;9716;53.114;18.040;2023-01-10T15:27:26;7.00;99.90
19168;DHT22;9716;53.114;18.040;2023-01-10T15:29:55;7.00;99.90
19168;DHT22;9716;53.114;18.040;2023-01-10T15:32:27;6.90;99.90
19168;DHT22;9716;53.114;18.040;2023-01-10T15:34:57;6.90;99.90
19168;DHT22;9716;53.114;18.040;2023-01-10T15:37:30;6.90;99.90
19168;DHT22;9716;53.114;18.040;2023-01-10T15:40:01;6.80;99.90
19168;DHT22;9716;53.114;18.040;2023-01-10T15:42:30;6.80;99.90
19168;DHT22;9716;53.114;18.040;2023-01-10T15:45:16;6.80;99.90
19168;DHT22;9716;53.114;18.040;2023-01-10T15:47:50;6.80;99.90
19168;DHT22;9716;53.114;18.040;2023-01-10T15:50:24;6.70;99.90
19168;DHT22;9716;53.114;18.040;2023-01-10T15:52:56;6.80;99.90
19168;DHT22;9716;53.114;18.040;2023-01-10T15:55:39;6.70;99.90
19168;DHT22;9716;53.114;18.040;2023-01-10T15:58:17;6.80;99.90
19168;DHT22;9716;53.114;18.040;2023-01-10T16:00:48;6.80;99.90
19168;DHT22;9716;53.114;18.040;2023-01-10T16:03:23;6.80;99.90
19168;DHT22;9716;53.114;18.040;2023-01-10T16:05:54;6.80;99.90
19168;DHT22;9716;53.114;18.040;2023-01-10T16:08:30;6.80;99.90
19168;DHT22;9716;53.114;18.040;2023-01-10T16:11:06;6.70;99.90
19168;DHT22;9716;53.114;18.040;2023-01-10T16:13:35;6.70;99.90
19168;DHT22;9716;53.114;18.040;2023-01-10T16:16:12;6.70;99.90
19168;DHT22;9716;53.114;18.040;2023-01-10T16:18:43;6.70;99.90
19168;DHT22;9716;53.114;18.040;2023-01-10T16:21:12;6.70;99.90
19168;DHT22;9716;53.114;18.040;2023-01-10T16:23:43;6.90;99.90
19168;DHT22;9716;53.114;18.040;2023-01-10T16:26:13;7.10;99.90
19168;DHT22;9716;53.114;18.040;2023-01-10T16:28:43;7.30;99.90
19168;DHT22;9716;53.114;18.040;2023-01-10T16:31:12;7.50;99.90